KDGW/DGW METAR and TAF weather

Enter ICAO airport designator
Station Type Date Time Source
KDGW METAR 2020/11/27 14:53 UTC NOAA

KDGW 271453Z AUTO 00000KT 10SM CLR M13/M16 A3019 RMK AO2 SLP291 T11281161 53002


Station Type Date Time Source
KDGW Decoded METAR 2020/11/27 14:53 UTC NOAA

DOUGLAS CONVERSE COUNTY, WY, United States (KDGW) 42-48N 105-23W 1499M
Nov 27, 2020 - 09:53 AM EST / 2020.11.27 1453 UTC
Wind: Calm:0
Visibility: 10 mile(s):0
Sky conditions: clear
Temperature: 9.0 F (-12.8 C)
Dew Point: 3.0 F (-16.1 C)
Relative Humidity: 76%
Pressure (altimeter): 30.19 in. Hg (1022 hPa)
Pressure tendency: 0.01 inches (0.2 hPa) higher than three hours ago
ob: KDGW 271453Z AUTO 00000KT 10SM CLR M13/M16 A3019 RMK AO2 SLP291 T11281161 53002
cycle: 15

Station Type Date Time Source
KDGW TAF UTC NOAA

Error!

Example: see airport list